Conesus, New York
Current Conditions -  °F | °C
As of 9:54 AM on Saturday 27 Dec 2014 (Local Time) from KDSV Reporting Station
Overcast Overcast  
Wind Chill: 44°   Ceiling: 5500
Heat Index: 47°   Visibility: 10mi
Dew Point: 35°   Wind: 7mph
Humidity: 63%   Direction: 180°S
Pressure: 30.19"   Gusts: NA
Location:  42.72°N, 77.68°W
Report Text: KDSV 271454Z AUTO 18006KT 10SM OVC055 08/02 A3019 RMK AO2 SLP237 T00830017 53006
Loading
Personal Weather Stations






























Interactive Weather Map New forecast layout! Learn more

10-Day Weather Forecast

Advertisements
Track Severe Weather on mobile